Time;durP1;ratioP1;P1;durP2;ratioP2;P2;SDS_P1;SDS_P2;PMS_P1;PMS_P2;Temp;Humidity;BMP_temperature;BMP_pressure;BME280_temperature;BME280_humidity;BME280_pressure;Samples;Min_cycle;Max_cycle;Signal;HPM_P1;HPM_P2
2023/09/09 00:01:51;;;;;;;6.07;5.47;;;21.10;99.90;;;;;;5090607;28;20054;-71
2023/09/09 00:04:17;;;;;;;6.90;6.30;;;21.10;99.90;;;;;;5108489;28;20035;-72
2023/09/09 00:06:44;;;;;;;5.63;5.15;;;21.10;99.90;;;;;;5090353;28;20032;-73
2023/09/09 00:09:10;;;;;;;6.60;6.00;;;21.00;99.90;;;;;;5086311;28;20032;-72
2023/09/09 00:11:37;;;;;;;5.47;5.07;;;21.00;99.90;;;;;;5056563;28;20486;-72
2023/09/09 00:14:03;;;;;;;6.40;5.82;;;21.00;99.90;;;;;;5089981;28;20042;-71
2023/09/09 00:16:36;;;;;;;5.55;5.10;;;20.90;99.90;;;;;;5089875;28;20493;-72
2023/09/09 00:19:02;;;;;;;6.10;5.55;;;20.90;99.90;;;;;;5073515;28;20039;-71
2023/09/09 00:21:29;;;;;;;6.53;5.75;;;20.90;99.90;;;;;;5056710;28;20031;-72
2023/09/09 00:23:56;;;;;;;6.97;6.30;;;20.80;99.90;;;;;;5050244;28;20043;-72
2023/09/09 00:26:23;;;;;;;6.68;5.97;;;20.80;99.90;;;;;;5054672;28;20039;-72
2023/09/09 00:28:49;;;;;;;5.85;5.30;;;20.70;99.90;;;;;;5092902;28;20028;-72
2023/09/09 00:31:15;;;;;;;6.43;5.82;;;20.70;99.90;;;;;;5093404;28;20023;-72
2023/09/09 00:33:42;;;;;;;7.60;6.38;;;20.70;99.90;;;;;;5055029;28;20035;-72
2023/09/09 00:36:09;;;;;;;7.05;6.35;;;20.60;99.90;;;;;;5107887;28;20036;-71
2023/09/09 00:38:35;;;;;;;6.43;5.82;;;20.60;99.90;;;;;;5073047;28;20368;-72
2023/09/09 00:41:11;;;;;;;6.35;5.75;;;20.60;99.90;;;;;;5089474;28;20028;-72
2023/09/09 00:43:38;;;;;;;5.85;5.25;;;20.60;99.90;;;;;;5089459;28;20036;-71
2023/09/09 00:46:08;;;;;;;6.28;5.78;;;20.60;99.90;;;;;;5066168;28;20047;-72
2023/09/09 00:48:36;;;;;;;5.97;5.38;;;20.50;99.90;;;;;;5061898;28;20032;-72
2023/09/09 00:51:04;;;;;;;7.03;6.10;;;20.50;99.90;;;;;;5083343;28;20042;-72
2023/09/09 00:53:32;;;;;;;6.45;5.85;;;20.50;99.90;;;;;;5079244;28;20035;-71
2023/09/09 00:56:01;;;;;;;6.60;6.00;;;20.50;99.90;;;;;;5089925;28;20035;-73
2023/09/09 00:58:30;;;;;;;6.10;5.20;;;20.50;99.90;;;;;;5089542;28;20036;-72
2023/09/09 01:00:57;;;;;;;7.18;6.57;;;20.50;99.90;;;;;;5089725;28;20028;-73
2023/09/09 01:03:24;;;;;;;6.53;5.95;;;20.50;99.90;;;;;;5089234;28;20498;-72
2023/09/09 01:05:51;;;;;;;7.55;6.85;;;20.50;99.90;;;;;;5107600;28;20032;-71
2023/09/09 01:08:28;;;;;;;5.85;5.35;;;20.50;99.90;;;;;;5107219;28;20036;-71
2023/09/09 01:10:56;;;;;;;5.68;5.10;;;20.50;99.90;;;;;;5107506;28;20036;-71
2023/09/09 01:13:23;;;;;;;5.75;5.25;;;20.50;99.90;;;;;;5075843;28;20515;-72
2023/09/09 01:15:50;;;;;;;6.38;5.78;;;20.50;99.90;;;;;;5109851;28;20044;-71
2023/09/09 01:18:18;;;;;;;5.78;5.28;;;20.50;99.90;;;;;;5069406;28;20494;-71
2023/09/09 01:20:52;;;;;;;6.03;5.43;;;20.40;99.90;;;;;;5089505;28;20039;-72
2023/09/09 01:23:18;;;;;;;6.25;5.65;;;20.40;99.90;;;;;;5088555;28;20031;-72
2023/09/09 01:25:45;;;;;;;6.18;5.68;;;20.40;99.90;;;;;;5107441;28;20121;-71
2023/09/09 01:28:11;;;;;;;6.38;5.78;;;20.40;99.90;;;;;;5072557;28;20032;-71
2023/09/09 01:30:37;;;;;;;6.35;5.75;;;20.30;99.90;;;;;;5070082;28;20063;-72
2023/09/09 01:33:04;;;;;;;5.50;5.00;;;20.30;99.90;;;;;;5089354;28;20036;-72
2023/09/09 01:35:31;;;;;;;5.32;4.88;;;20.30;99.90;;;;;;5088864;28;20043;-72
2023/09/09 01:37:58;;;;;;;5.70;5.20;;;20.20;99.90;;;;;;5089054;28;20042;-72
2023/09/09 01:40:25;;;;;;;6.60;5.55;;;20.20;99.90;;;;;;5089146;28;20041;-72
2023/09/09 01:42:51;;;;;;;5.13;4.72;;;20.20;99.90;;;;;;5089258;28;20047;-72
2023/09/09 01:45:18;;;;;;;5.88;4.85;;;20.10;99.90;;;;;;5071662;28;20036;-71
2023/09/09 01:47:45;;;;;;;5.18;4.72;;;20.10;99.90;;;;;;5072071;28;20047;-72
2023/09/09 01:50:11;;;;;;;5.03;4.63;;;20.10;99.90;;;;;;5050631;28;20062;-72
2023/09/09 01:52:38;;;;;;;5.43;4.97;;;20.10;99.90;;;;;;5055242;28;20048;-71
2023/09/09 01:55:04;;;;;;;5.53;4.97;;;20.10;99.90;;;;;;5088735;28;20039;-72
2023/09/09 01:57:31;;;;;;;4.75;4.35;;;20.00;99.90;;;;;;5073764;28;20047;-72
2023/09/09 01:59:58;;;;;;;5.40;5.00;;;20.10;99.90;;;;;;5075672;28;20040;-72
2023/09/09 02:02:24;;;;;;;5.88;5.30;;;20.10;99.90;;;;;;5076249;28;20031;-72
2023/09/09 02:04:50;;;;;;;7.07;6.38;;;20.10;99.90;;;;;;5049837;28;20042;-71
2023/09/09 02:07:17;;;;;;;7.93;7.05;;;20.10;99.90;;;;;;5059179;28;20028;-72
2023/09/09 02:09:44;;;;;;;6.75;6.15;;;20.20;99.90;;;;;;5092184;28;20418;-71
2023/09/09 02:12:11;;;;;;;6.88;6.28;;;20.20;99.90;;;;;;5092754;28;20028;-72
2023/09/09 02:14:38;;;;;;;5.72;5.22;;;20.20;99.90;;;;;;5082710;28;20055;-72
2023/09/09 02:17:04;;;;;;;6.38;5.78;;;20.20;99.90;;;;;;5075999;28;20490;-71
2023/09/09 02:19:31;;;;;;;5.50;5.00;;;20.20;99.90;;;;;;5092181;28;20482;-72
2023/09/09 02:21:58;;;;;;;5.88;5.28;;;20.10;99.90;;;;;;5092403;28;20479;-71
2023/09/09 02:24:24;;;;;;;5.47;4.97;;;20.10;99.90;;;;;;5110247;28;20043;-71
2023/09/09 02:26:51;;;;;;;6.30;5.75;;;20.10;99.90;;;;;;5059347;28;20509;-72
2023/09/09 02:29:17;;;;;;;6.32;5.72;;;20.00;99.90;;;;;;5074372;28;20479;-72
2023/09/09 02:31:44;;;;;;;5.97;5.47;;;20.00;99.90;;;;;;5075405;28;20505;-71
2023/09/09 02:34:10;;;;;;;6.00;5.57;;;20.00;99.90;;;;;;5057663;28;20046;-72
2023/09/09 02:36:43;;;;;;;6.07;5.50;;;19.90;99.90;;;;;;5058551;28;20039;-72
2023/09/09 02:39:10;;;;;;;;;;;19.80;99.90;;;;;;5079322;28;20038;-72
2023/09/09 02:41:37;;;;;;;4.82;4.15;;;19.80;99.90;;;;;;5072812;28;19923;-72
2023/09/09 02:44:04;;;;;;;5.75;5.25;;;19.70;99.90;;;;;;5091203;28;20034;-71
2023/09/09 02:46:30;;;;;;;6.03;5.43;;;19.70;99.90;;;;;;5091590;28;20043;-71
2023/09/09 02:48:57;;;;;;;6.18;5.68;;;19.70;99.90;;;;;;5091357;28;20023;-72
2023/09/09 02:51:23;;;;;;;6.57;5.88;;;19.60;99.90;;;;;;5058023;28;20043;-72
2023/09/09 02:53:50;;;;;;;6.93;5.68;;;19.60;99.90;;;;;;5073875;28;20057;-72
2023/09/09 02:56:17;;;;;;;6.50;5.90;;;19.60;99.90;;;;;;5056042;28;20418;-71
2023/09/09 02:58:44;;;;;;;5.57;5.10;;;19.60;99.90;;;;;;5047664;28;20039;-71
2023/09/09 03:01:11;;;;;;;6.10;5.60;;;19.60;99.90;;;;;;5071887;28;20036;-71
2023/09/09 03:03:37;;;;;;;6.18;5.53;;;19.60;99.90;;;;;;5066507;28;20042;-71
2023/09/09 03:06:05;;;;;;;5.78;5.28;;;19.50;99.90;;;;;;5070434;28;20044;-72
2023/09/09 03:08:32;;;;;;;7.32;5.38;;;19.50;99.90;;;;;;5073362;28;20042;-71
2023/09/09 03:10:58;;;;;;;6.28;5.72;;;19.50;99.90;;;;;;5074005;28;20032;-71
2023/09/09 03:13:24;;;;;;;6.55;5.95;;;19.50;99.90;;;;;;5074753;28;20036;-72
2023/09/09 03:15:51;;;;;;;6.63;6.03;;;19.50;99.90;;;;;;5057157;28;20043;-72
2023/09/09 03:18:17;;;;;;;6.72;6.13;;;19.40;99.90;;;;;;5073902;28;20047;-71
2023/09/09 03:20:44;;;;;;;6.30;5.80;;;19.40;99.90;;;;;;5078809;28;20028;-71
2023/09/09 03:23:10;;;;;;;6.45;5.85;;;19.40;99.90;;;;;;5091118;28;20024;-71
2023/09/09 03:25:37;;;;;;;7.28;6.53;;;19.40;99.90;;;;;;5066859;28;20042;-71
2023/09/09 03:28:03;;;;;;;8.35;7.55;;;19.30;99.90;;;;;;5090476;28;20031;-72
2023/09/09 03:30:54;;;;;;;7.22;6.53;;;19.30;99.90;;;;;;5055637;28;20044;-72
2023/09/09 03:33:23;;;;;;;6.25;5.70;;;19.30;99.90;;;;;;5075909;28;20268;-71
2023/09/09 03:35:49;;;;;;;6.18;5.68;;;19.30;99.90;;;;;;5108344;28;20027;-72
2023/09/09 03:38:16;;;;;;;7.13;6.50;;;19.30;99.90;;;;;;5073922;28;20058;-71
2023/09/09 03:40:42;;;;;;;8.10;7.13;;;19.30;99.90;;;;;;5073533;28;20035;-72
2023/09/09 03:43:09;;;;;;;7.60;6.93;;;19.30;99.90;;;;;;5090500;28;20036;-72
2023/09/09 03:45:35;;;;;;;7.85;7.07;;;19.30;99.90;;;;;;5073367;28;20054;-72
2023/09/09 03:48:04;;;;;;;7.88;7.10;;;19.20;99.90;;;;;;5071953;28;20055;-72
2023/09/09 03:50:31;;;;;;;6.55;6.05;;;19.20;99.90;;;;;;5071151;28;20378;-72
2023/09/09 03:52:59;;;;;;;7.95;7.25;;;19.20;99.90;;;;;;5073685;28;20035;-72
2023/09/09 03:55:26;;;;;;;7.45;6.80;;;19.10;99.90;;;;;;5053252;28;20032;-71
2023/09/09 03:57:53;;;;;;;9.10;7.18;;;19.10;99.90;;;;;;5070222;28;20372;-70
2023/09/09 04:00:20;;;;;;;8.18;7.45;;;19.10;99.90;;;;;;5090083;28;20023;-71
2023/09/09 04:02:46;;;;;;;7.47;6.78;;;19.10;99.90;;;;;;5065475;28;20039;-71
2023/09/09 04:05:14;;;;;;;7.70;7.00;;;19.00;99.90;;;;;;5071860;28;20032;-71
2023/09/09 04:07:44;;;;;;;8.30;7.50;;;19.00;99.90;;;;;;5073335;28;20028;-71
2023/09/09 04:10:12;;;;;;;9.45;8.27;;;19.00;99.90;;;;;;5071456;28;20031;-70
2023/09/09 04:12:38;;;;;;;9.07;8.18;;;19.00;99.90;;;;;;5071765;28;20031;-71
2023/09/09 04:15:06;;;;;;;8.80;8.02;;;18.90;99.90;;;;;;5072483;28;20042;-71
2023/09/09 04:17:32;;;;;;;8.98;8.18;;;18.90;99.90;;;;;;5090267;28;20036;-71
2023/09/09 04:19:59;;;;;;;7.82;7.13;;;18.90;99.90;;;;;;5072314;28;20035;-70
2023/09/09 04:22:26;;;;;;;7.82;7.13;;;18.80;99.90;;;;;;5069721;28;20046;-71
2023/09/09 04:24:55;;;;;;;7.90;7.00;;;18.80;99.90;;;;;;5076601;28;20031;-72
2023/09/09 04:27:22;;;;;;;6.97;6.43;;;18.80;99.90;;;;;;5073122;28;20039;-71
2023/09/09 04:29:49;;;;;;;8.63;7.72;;;18.80;99.90;;;;;;5055250;28;20038;-72
2023/09/09 04:32:15;;;;;;;8.70;8.00;;;18.70;99.90;;;;;;5056110;28;20027;-70
2023/09/09 04:34:42;;;;;;;9.10;8.30;;;18.70;99.90;;;;;;5055726;28;20414;-72
2023/09/09 04:37:09;;;;;;;8.63;7.85;;;18.70;99.90;;;;;;5089640;28;20032;-71
2023/09/09 04:39:35;;;;;;;10.02;9.13;;;18.70;99.90;;;;;;5089582;28;20038;-72
2023/09/09 04:42:02;;;;;;;8.77;8.05;;;18.60;99.90;;;;;;5089895;28;20036;-71
2023/09/09 04:44:28;;;;;;;9.95;8.95;;;18.60;99.90;;;;;;5107664;28;20039;-72
2023/09/09 04:46:54;;;;;;;9.93;9.05;;;18.60;99.90;;;;;;5066309;28;20035;-71
2023/09/09 04:49:22;;;;;;;9.13;8.30;;;18.50;99.90;;;;;;5072616;28;20039;-72
2023/09/09 04:51:49;;;;;;;8.70;7.93;;;18.50;99.90;;;;;;5079852;28;20040;-72
2023/09/09 04:54:18;;;;;;;8.85;8.00;;;18.50;99.90;;;;;;5072970;28;20019;-72
2023/09/09 04:56:46;;;;;;;9.43;8.60;;;18.50;99.90;;;;;;5072449;28;20066;-71
2023/09/09 04:59:12;;;;;;;9.45;8.60;;;18.50;99.90;;;;;;5047311;28;20031;-72
2023/09/09 05:01:39;;;;;;;9.60;8.73;;;18.40;99.90;;;;;;5056024;28;20039;-72
2023/09/09 05:04:07;;;;;;;10.38;9.38;;;18.50;99.90;;;;;;5040737;28;20486;-72
2023/09/09 05:06:34;;;;;;;10.38;9.27;;;18.40;99.90;;;;;;5088665;28;20031;-72
2023/09/09 05:09:01;;;;;;;12.18;9.82;;;18.40;99.90;;;;;;5071957;28;20040;-72
2023/09/09 05:11:28;;;;;;;10.63;9.63;;;18.40;99.90;;;;;;5089041;28;20031;-72
2023/09/09 05:13:54;;;;;;;11.30;10.32;;;18.40;99.90;;;;;;5072715;28;20502;-72
2023/09/09 05:16:21;;;;;;;11.25;10.15;;;18.40;99.90;;;;;;5072414;28;20039;-71
2023/09/09 05:18:47;;;;;;;11.55;10.45;;;18.40;99.90;;;;;;5089249;28;20036;-72
2023/09/09 05:21:13;;;;;;;13.07;11.88;;;18.30;99.90;;;;;;5089410;28;20047;-71
2023/09/09 05:23:40;;;;;;;12.27;11.10;;;18.30;99.90;;;;;;5068544;28;20047;-72
2023/09/09 05:26:06;;;;;;;13.98;12.65;;;18.40;99.90;;;;;;5073920;28;20042;-72
2023/09/09 05:28:33;;;;;;;14.25;12.88;;;18.40;99.90;;;;;;5072448;28;20050;-72
2023/09/09 05:30:59;;;;;;;12.80;11.50;;;18.40;99.90;;;;;;5070891;28;20039;-71
2023/09/09 05:33:26;;;;;;;14.15;12.68;;;18.40;99.90;;;;;;5093062;28;20043;-71
2023/09/09 05:35:52;;;;;;;13.73;12.43;;;18.40;99.90;;;;;;5076244;28;20040;-71
2023/09/09 05:38:19;;;;;;;13.48;12.18;;;18.40;99.90;;;;;;5076635;28;20031;-72
2023/09/09 05:40:45;;;;;;;13.05;11.77;;;18.40;99.90;;;;;;5093251;28;20034;-71
2023/09/09 05:43:11;;;;;;;12.30;11.18;;;18.40;99.90;;;;;;5075690;28;20031;-72
2023/09/09 05:45:38;;;;;;;14.00;12.73;;;18.40;99.90;;;;;;5075059;28;20109;-72
2023/09/09 05:48:05;;;;;;;15.18;13.73;;;18.40;99.90;;;;;;5111231;28;20410;-71
2023/09/09 05:50:31;;;;;;;13.25;11.90;;;18.50;99.90;;;;;;5075537;28;20031;-71
2023/09/09 05:52:58;;;;;;;15.00;13.48;;;18.50;99.90;;;;;;5056689;28;20504;-71
2023/09/09 05:55:25;;;;;;;16.55;14.85;;;18.50;99.90;;;;;;5075188;28;20020;-70
2023/09/09 05:57:52;;;;;;;15.02;13.60;;;18.60;99.90;;;;;;5092952;28;20031;-71
2023/09/09 06:00:20;;;;;;;17.08;15.45;;;18.70;99.90;;;;;;5075274;28;20496;-71
2023/09/09 06:02:47;;;;;;;16.05;14.45;;;18.70;99.90;;;;;;5059483;28;20039;-72
2023/09/09 06:05:15;;;;;;;17.42;15.73;;;18.80;99.90;;;;;;5091640;28;20042;-72
2023/09/09 06:07:42;;;;;;;16.40;14.85;;;18.90;99.90;;;;;;5085726;28;20035;-71
2023/09/09 06:10:09;;;;;;;18.30;16.45;;;19.00;99.90;;;;;;5091168;28;20387;-72
2023/09/09 06:12:35;;;;;;;21.48;19.17;;;19.10;99.90;;;;;;5090019;28;20418;-72
2023/09/09 06:15:03;;;;;;;24.60;21.23;;;19.20;99.90;;;;;;5091615;28;20028;-72
2023/09/09 06:17:30;;;;;;;29.98;26.42;;;19.30;99.90;;;;;;5075551;28;20047;-71
2023/09/09 06:19:56;;;;;;;31.50;27.10;;;19.50;99.90;;;;;;5075606;28;20474;-71
2023/09/09 06:22:23;;;;;;;29.30;26.10;;;19.60;99.90;;;;;;5058703;28;20509;-71
2023/09/09 06:24:49;;;;;;;27.92;24.63;;;19.80;99.90;;;;;;5082193;28;20024;-72
2023/09/09 06:27:16;;;;;;;33.67;29.23;;;20.00;99.90;;;;;;5075457;28;20028;-72
2023/09/09 06:29:42;;;;;;;35.05;30.45;;;20.00;99.90;;;;;;5102816;28;20031;-71
2023/09/09 06:32:09;;;;;;;35.85;31.00;;;20.20;99.90;;;;;;5056190;28;20039;-72
2023/09/09 06:34:36;;;;;;;44.95;38.08;;;20.30;99.90;;;;;;5074478;28;20035;-72
2023/09/09 06:37:03;;;;;;;51.78;44.55;;;20.40;99.90;;;;;;5060191;28;20036;-70
2023/09/09 06:39:29;;;;;;;52.00;42.90;;;20.60;99.90;;;;;;5092014;28;20034;-72
2023/09/09 06:41:56;;;;;;;48.83;40.97;;;20.70;99.90;;;;;;5091323;28;20054;-72
2023/09/09 06:44:26;;;;;;;48.28;40.08;;;20.70;99.90;;;;;;5074731;28;20822;-72
2023/09/09 06:46:53;;;;;;;58.17;49.00;;;20.80;99.90;;;;;;5074783;28;20039;-72
2023/09/09 06:49:19;;;;;;;51.13;43.00;;;20.90;99.90;;;;;;5108108;28;20034;-71
2023/09/09 06:51:46;;;;;;;40.55;35.40;;;20.90;99.90;;;;;;5074533;28;20031;-71
2023/09/09 06:54:13;;;;;;;41.42;36.80;;;21.00;99.90;;;;;;5091900;28;20028;-72
2023/09/09 06:56:40;;;;;;;35.03;31.25;;;21.00;99.90;;;;;;5074637;28;20046;-71
2023/09/09 06:59:07;;;;;;;37.22;33.22;;;21.10;99.90;;;;;;5074483;28;20050;-72
2023/09/09 07:01:34;;;;;;;31.48;28.17;;;21.10;99.90;;;;;;5091250;28;20023;-72
2023/09/09 07:04:00;;;;;;;30.40;27.30;;;21.30;99.90;;;;;;5091110;28;20039;-71
2023/09/09 07:06:27;;;;;;;27.33;24.42;;;21.30;99.90;;;;;;5056372;28;20039;-72
2023/09/09 07:08:53;;;;;;;27.15;24.42;;;21.50;99.90;;;;;;5074667;28;20071;-72
2023/09/09 07:11:19;;;;;;;24.00;21.60;;;21.50;99.90;;;;;;5091000;28;20038;-72
2023/09/09 07:13:46;;;;;;;22.02;19.85;;;21.60;99.90;;;;;;5112129;27;20047;-70
2023/09/09 07:16:12;;;;;;;22.65;20.55;;;21.70;99.90;;;;;;5074508;28;20605;-72
2023/09/09 07:18:38;;;;;;;29.40;26.67;;;21.70;99.90;;;;;;5073807;28;20406;-72
2023/09/09 07:21:06;;;;;;;51.40;26.23;;;21.80;99.90;;;;;;5073914;28;20028;-72
2023/09/09 07:23:32;;;;;;;25.33;22.88;;;21.80;99.90;;;;;;5074192;28;20042;-71
2023/09/09 07:25:58;;;;;;;19.77;17.98;;;21.90;99.90;;;;;;5075616;28;20398;-73
2023/09/09 07:28:25;;;;;;;15.90;14.52;;;22.00;99.90;;;;;;5074269;28;20028;-72
2023/09/09 07:30:52;;;;;;;26.63;24.23;;;22.00;99.90;;;;;;5073772;28;20039;-71
2023/09/09 07:33:18;;;;;;;26.55;24.05;;;22.10;99.90;;;;;;5108774;28;20481;-72
2023/09/09 07:35:45;;;;;;;28.75;26.05;;;22.20;99.90;;;;;;5090247;28;20031;-70
2023/09/09 07:38:11;;;;;;;27.52;24.92;;;22.30;99.90;;;;;;5048601;28;20055;-71
2023/09/09 07:40:38;;;;;;;36.05;32.45;;;22.40;99.90;;;;;;5087801;28;20043;-72
2023/09/09 07:43:05;;;;;;;30.50;27.40;;;22.50;99.90;;;;;;5073910;28;20035;-72
2023/09/09 07:45:31;;;;;;;35.72;31.95;;;22.60;99.90;;;;;;5110026;27;20039;-71
2023/09/09 07:47:58;;;;;;;42.40;37.90;;;22.60;99.90;;;;;;5073454;28;20051;-72
2023/09/09 07:50:25;;;;;;;38.22;34.22;;;22.70;99.90;;;;;;5090523;28;20043;-72
2023/09/09 07:52:51;;;;;;;31.23;28.00;;;22.70;99.90;;;;;;5073613;28;20513;-71
2023/09/09 07:55:18;;;;;;;44.58;39.80;;;22.80;99.90;;;;;;5056349;28;20035;-72
2023/09/09 07:57:44;;;;;;;37.10;33.03;;;22.90;99.90;;;;;;5057344;28;20043;-72
2023/09/09 08:00:11;;;;;;;32.40;28.85;;;23.00;99.90;;;;;;5073500;28;20628;-72
2023/09/09 08:02:40;;;;;;;39.80;34.50;;;23.00;99.90;;;;;;5073276;28;20039;-72
2023/09/09 08:05:07;;;;;;;28.25;24.70;;;23.10;99.90;;;;;;5090387;28;20040;-72
2023/09/09 08:07:34;;;;;;;32.38;28.77;;;23.20;99.90;;;;;;5104918;28;20386;-72
2023/09/09 08:10:00;;;;;;;41.25;36.83;;;23.30;99.90;;;;;;5072715;28;20494;-72
2023/09/09 08:12:27;;;;;;;36.38;32.58;;;23.40;99.90;;;;;;5073356;27;20034;-71
2023/09/09 08:15:04;;;;;;;46.00;39.85;;;23.50;99.90;;;;;;5073858;28;20046;-70
2023/09/09 08:17:30;;;;;;;40.40;36.10;;;23.60;99.90;;;;;;5073339;28;20051;-72
2023/09/09 08:19:57;;;;;;;32.00;28.60;;;23.70;99.90;;;;;;5087296;28;20034;-71
2023/09/09 08:22:23;;;;;;;36.95;33.03;;;23.90;99.90;;;;;;5071498;28;20035;-71
2023/09/09 08:24:51;;;;;;;38.63;34.45;;;24.00;99.90;;;;;;5097950;28;20071;-72
2023/09/09 08:27:17;;;;;;;34.33;30.73;;;24.10;99.90;;;;;;5070874;28;20497;-71
2023/09/09 08:29:43;;;;;;;39.92;35.75;;;24.20;99.90;;;;;;5072507;28;20046;-72
2023/09/09 08:32:10;;;;;;;40.17;35.80;;;24.30;99.90;;;;;;5090049;28;20027;-72
2023/09/09 08:34:37;;;;;;;32.67;29.23;;;24.50;99.90;;;;;;5100228;28;20055;-72
2023/09/09 08:37:03;;;;;;;35.40;31.63;;;24.70;99.90;;;;;;5089844;28;20024;-72
2023/09/09 08:39:30;;;;;;;32.95;29.55;;;24.80;99.90;;;;;;5070477;28;20378;-71
2023/09/09 08:42:09;;;;;;;36.47;32.78;;;24.90;99.90;;;;;;5084557;28;20035;-73
2023/09/09 08:44:48;;;;;;;31.50;28.20;;;25.00;99.90;;;;;;5051998;28;20458;-72
2023/09/09 08:47:17;;;;;;;31.60;28.20;;;25.00;99.90;;;;;;5086486;28;20486;-73
2023/09/09 08:49:47;;;;;;;31.02;27.90;;;25.10;99.90;;;;;;5089966;28;20040;-73
2023/09/09 08:52:23;;;;;;;26.85;24.05;;;25.20;99.90;;;;;;5104011;28;20019;-72
2023/09/09 08:54:50;;;;;;;31.77;28.58;;;25.30;99.90;;;;;;5085937;28;20046;-72
2023/09/09 08:57:17;;;;;;;31.52;28.25;;;25.30;99.90;;;;;;5072857;28;20478;-72
2023/09/09 08:59:46;;;;;;;35.60;31.95;;;25.40;99.90;;;;;;5090245;28;20398;-73
2023/09/09 09:02:13;;;;;;;34.30;30.73;;;25.50;99.90;;;;;;5089666;28;20035;-72
2023/09/09 09:04:40;;;;;;;29.42;26.45;;;25.60;99.90;;;;;;5084695;28;20035;-73
2023/09/09 09:07:08;;;;;;;32.58;29.27;;;25.60;99.90;;;;;;5063508;28;20028;-72
2023/09/09 09:09:34;;;;;;;32.38;29.15;;;25.70;99.90;;;;;;5093710;28;20102;-73
2023/09/09 09:12:03;;;;;;;24.35;21.75;;;25.80;99.90;;;;;;5093801;28;20379;-72
2023/09/09 09:14:29;;;;;;;31.05;27.70;;;25.80;99.90;;;;;;5067896;28;20048;-71
2023/09/09 09:16:56;;;;;;;27.13;24.45;;;26.00;99.90;;;;;;5093686;28;20581;-71
2023/09/09 09:19:28;;;;;;;36.97;33.20;;;26.10;99.90;;;;;;5078848;28;20028;-72
2023/09/09 09:21:55;;;;;;;24.83;22.15;;;26.10;99.90;;;;;;5093889;28;20502;-72
2023/09/09 09:24:25;;;;;;;32.25;28.98;;;26.20;99.90;;;;;;5091156;28;20032;-71
2023/09/09 09:26:53;;;;;;;18.60;16.65;;;26.30;99.90;;;;;;5054679;28;20521;-72
2023/09/09 09:29:19;;;;;;;23.20;20.70;;;26.40;99.90;;;;;;5058027;28;20051;-72
2023/09/09 09:31:53;;;;;;;25.05;22.55;;;26.50;99.90;;;;;;5075864;28;20406;-72
2023/09/09 09:34:31;;;;;;;28.90;26.00;;;26.60;99.90;;;;;;5059177;28;20474;-75
2023/09/09 09:36:58;;;;;;;15.38;13.77;;;26.70;99.90;;;;;;5088229;28;20470;-72
2023/09/09 09:39:31;;;;;;;17.27;15.68;;;26.80;99.90;;;;;;5056646;28;20043;-72
2023/09/09 09:41:58;;;;;;;15.00;13.60;;;26.90;99.90;;;;;;5073377;28;20402;-72
2023/09/09 09:44:25;;;;;;;18.63;16.83;;;27.00;99.90;;;;;;5075156;28;20047;-72
2023/09/09 09:47:03;;;;;;;23.20;20.95;;;27.20;99.90;;;;;;5075313;28;20046;-72
2023/09/09 09:49:51;;;;;;;14.48;12.98;;;27.40;99.90;;;;;;5059072;27;20525;-72
2023/09/09 09:52:26;;;;;;;30.02;27.15;;;27.50;99.90;;;;;;5089317;28;20040;-71
2023/09/09 09:54:53;;;;;;;22.95;20.60;;;27.70;99.90;;;;;;5092039;28;20040;-72
2023/09/09 09:57:21;;;;;;;19.80;17.80;;;27.70;99.90;;;;;;5087952;28;20043;-71
2023/09/09 09:59:48;;;;;;;16.00;14.50;;;27.80;99.90;;;;;;5075666;28;20351;-72
2023/09/09 10:02:15;;;;;;;15.25;13.82;;;27.90;99.90;;;;;;5109999;28;20035;-71
2023/09/09 10:04:42;;;;;;;12.57;11.45;;;28.00;99.90;;;;;;5091586;28;20036;-72
2023/09/09 10:07:13;;;;;;;15.07;13.70;;;28.10;99.90;;;;;;5110074;28;20508;-71
2023/09/09 10:09:40;;;;;;;16.40;14.70;;;28.30;99.90;;;;;;5083589;28;20035;-72
2023/09/09 10:12:17;;;;;;;13.23;11.93;;;28.40;99.90;;;;;;5109570;28;20501;-72
2023/09/09 10:14:45;;;;;;;15.18;13.55;;;28.60;99.90;;;;;;5110995;27;20043;-71
2023/09/09 10:17:13;;;;;;;11.38;10.27;;;28.80;99.90;;;;;;5073897;28;20046;-72
2023/09/09 10:19:41;;;;;;;13.38;10.30;;;29.10;99.90;;;;;;5089451;28;20123;-72
2023/09/09 10:22:08;;;;;;;13.05;11.85;;;29.40;99.90;;;;;;5076043;28;20035;-71
2023/09/09 10:24:35;;;;;;;14.00;12.52;;;29.60;99.90;;;;;;5091488;28;20031;-72
2023/09/09 10:27:03;;;;;;;11.68;10.48;;;29.90;99.90;;;;;;5110033;28;20027;-72
2023/09/09 10:29:31;;;;;;;8.35;7.55;;;30.10;99.90;;;;;;5091344;28;20031;-72
2023/09/09 10:32:05;;;;;;;10.13;8.88;;;30.40;99.90;;;;;;5075281;28;20541;-72
2023/09/09 10:34:36;;;;;;;12.18;10.98;;;30.80;99.90;;;;;;5066189;28;20413;-71
2023/09/09 10:37:03;;;;;;;9.60;8.80;;;31.00;99.90;;;;;;5091719;28;20032;-72
2023/09/09 10:39:32;;;;;;;9.40;8.60;;;31.20;99.80;;;;;;5063239;28;20286;-72
2023/09/09 10:41:59;;;;;;;10.50;9.40;;;31.60;99.50;;;;;;5056634;28;20035;-72
2023/09/09 10:44:25;;;;;;;9.80;7.95;;;31.90;98.80;;;;;;5057606;28;20035;-72
2023/09/09 10:46:56;;;;;;;9.55;8.05;;;32.20;98.40;;;;;;5087643;28;20035;-72
2023/09/09 10:49:29;;;;;;;10.40;9.30;;;32.50;98.00;;;;;;5090497;28;20031;-72
2023/09/09 10:51:56;;;;;;;11.10;8.82;;;32.80;96.90;;;;;;5090825;28;20070;-72
2023/09/09 10:54:24;;;;;;;9.23;8.15;;;33.00;96.30;;;;;;5073860;28;20039;-71
2023/09/09 10:56:52;;;;;;;9.95;7.60;;;33.30;95.90;;;;;;5089073;28;20042;-72
2023/09/09 10:59:21;;;;;;;7.38;6.78;;;33.50;94.60;;;;;;5053440;28;20497;-72
2023/09/09 11:01:51;;;;;;;7.63;6.85;;;33.70;94.00;;;;;;5091289;28;20043;-72
2023/09/09 11:04:23;;;;;;;7.97;5.60;;;34.00;93.30;;;;;;5073837;28;20036;-71
2023/09/09 11:07:18;;;;;;;5.32;4.82;;;34.30;93.00;;;;;;5090427;28;20467;-72
2023/09/09 11:09:51;;;;;;;5.70;5.20;;;34.50;92.20;;;;;;5069200;28;20035;-72
2023/09/09 11:12:18;;;;;;;6.32;5.40;;;34.70;91.60;;;;;;5074940;28;20036;-71
2023/09/09 11:14:46;;;;;;;7.30;5.07;;;34.90;91.30;;;;;;5092033;28;20405;-72
2023/09/09 11:17:13;;;;;;;4.95;4.45;;;35.10;90.30;;;;;;5091172;28;20042;-72
2023/09/09 11:19:43;;;;;;;4.45;4.10;;;35.40;89.00;;;;;;5073887;28;20044;-71
2023/09/09 11:22:11;;;;;;;7.13;5.00;;;35.70;87.50;;;;;;5064697;28;20036;-72
2023/09/09 11:24:38;;;;;;;4.53;4.13;;;35.90;85.40;;;;;;5108729;28;20034;-71
2023/09/09 11:27:05;;;;;;;5.43;4.13;;;36.20;85.00;;;;;;5076221;28;20043;-72
2023/09/09 11:29:32;;;;;;;6.00;4.43;;;36.40;83.90;;;;;;5090125;28;20027;-72
2023/09/09 11:31:58;;;;;;;5.00;4.60;;;36.50;81.90;;;;;;5090577;28;20039;-72
2023/09/09 11:34:34;;;;;;;6.25;3.70;;;36.70;80.70;;;;;;5089495;28;20050;-71
2023/09/09 11:37:04;;;;;;;6.45;4.60;;;36.90;79.40;;;;;;5086371;28;20051;-72
2023/09/09 11:39:38;;;;;;;5.07;4.20;;;37.20;77.90;;;;;;5090019;28;20406;-72
2023/09/09 11:42:04;;;;;;;4.97;4.57;;;37.40;77.00;;;;;;5090045;28;20036;-71
2023/09/09 11:44:42;;;;;;;4.88;4.35;;;37.70;76.20;;;;;;5044266;28;20482;-71
2023/09/09 11:47:09;;;;;;;8.90;5.25;;;37.90;75.30;;;;;;5057020;28;20042;-72
2023/09/09 11:49:39;;;;;;;24.17;21.55;;;38.00;74.20;;;;;;5077155;28;20039;-72
2023/09/09 11:52:06;;;;;;;20.33;18.23;;;38.20;73.70;;;;;;5061973;28;20031;-72
2023/09/09 11:54:32;;;;;;;7.75;6.95;;;38.20;72.70;;;;;;5097852;28;20032;-72
2023/09/09 11:57:09;;;;;;;7.35;5.30;;;38.40;71.80;;;;;;5076932;28;20035;-72
2023/09/09 11:59:48;;;;;;;6.25;4.55;;;38.50;70.30;;;;;;5075440;28;20035;-72
2023/09/09 12:02:18;;;;;;;4.57;2.70;;;38.60;69.40;;;;;;5078105;28;20028;-71
2023/09/09 12:04:59;;;;;;;12.05;3.92;;;38.90;69.00;;;;;;5058780;28;20039;-71
2023/09/09 12:07:31;;;;;;;6.90;2.33;;;39.20;65.90;;;;;;5080690;28;20040;-70
2023/09/09 12:09:59;;;;;;;3.40;2.70;;;39.30;65.50;;;;;;5068402;28;20408;-70
2023/09/09 12:12:26;;;;;;;6.72;2.20;;;39.50;63.80;;;;;;5078729;28;20415;-70
2023/09/09 12:14:54;;;;;;;3.45;1.92;;;39.50;62.50;;;;;;5076179;28;20038;-70
2023/09/09 12:17:21;;;;;;;2.25;1.60;;;39.80;61.90;;;;;;5090525;28;20039;-69
2023/09/09 12:19:55;;;;;;;2.63;2.13;;;40.00;60.40;;;;;;5045946;28;20043;-70
2023/09/09 12:22:46;;;;;;;3.13;1.83;;;40.10;58.20;;;;;;5072946;28;20394;-70
2023/09/09 12:25:35;;;;;;;3.85;1.88;;;40.30;57.80;;;;;;5088779;28;20035;-72
2023/09/09 12:28:15;;;;;;;2.55;2.03;;;40.50;56.60;;;;;;5054161;28;20509;-73
2023/09/09 12:30:42;;;;;;;7.63;6.93;;;40.60;55.20;;;;;;5072487;28;20508;-73
2023/09/09 12:33:13;;;;;;;3.58;3.05;;;40.80;55.30;;;;;;5089744;28;20023;-72
2023/09/09 12:35:49;;;;;;;5.68;2.70;;;41.10;55.50;;;;;;5067319;28;20039;-72
2023/09/09 12:38:18;;;;;;;3.15;2.47;;;41.40;55.10;;;;;;5071469;28;20089;-72
2023/09/09 12:41:03;;;;;;;5.00;4.60;;;41.60;55.30;;;;;;5072004;28;20035;-71
2023/09/09 12:43:30;;;;;;;112.22;100.90;;;42.00;55.50;;;;;;5084500;28;20408;-74